createdAt,value
2022-12-11T00:00:53.897Z,2.50
2022-12-11T00:03:21.636Z,2.50
2022-12-11T00:05:49.129Z,2.50
2022-12-11T00:08:16.721Z,2.50
2022-12-11T00:10:50.510Z,2.50
2022-12-11T00:13:18.127Z,2.50
2022-12-11T00:15:45.656Z,2.50
2022-12-11T00:18:14.967Z,2.50
2022-12-11T00:20:42.866Z,2.50
2022-12-11T00:23:11.264Z,2.50
2022-12-11T00:25:46.761Z,2.50
2022-12-11T00:28:17.349Z,2.50
2022-12-11T00:30:45.516Z,2.50
2022-12-11T00:33:14.145Z,2.50
2022-12-11T00:35:46.378Z,2.50
2022-12-11T00:38:18.760Z,2.50
2022-12-11T00:40:47.194Z,2.60
2022-12-11T00:43:15.379Z,2.60
2022-12-11T00:45:47.845Z,2.50
2022-12-11T00:48:15.476Z,2.50
2022-12-11T00:50:43.162Z,2.60
2022-12-11T00:53:10.784Z,2.60
2022-12-11T00:55:40.923Z,2.60
2022-12-11T00:58:09.503Z,2.60
2022-12-11T01:00:37.650Z,2.60
2022-12-11T01:03:05.689Z,2.60
2022-12-11T01:05:33.960Z,2.70
2022-12-11T01:08:03.102Z,2.70
2022-12-11T01:10:31.308Z,2.70
2022-12-11T01:13:03.457Z,2.70
2022-12-11T01:15:38.650Z,2.70
2022-12-11T01:18:10.605Z,2.70
2022-12-11T01:20:40.719Z,2.70
2022-12-11T01:23:08.527Z,2.70
2022-12-11T01:25:38.364Z,2.70
2022-12-11T01:28:06.575Z,2.80
2022-12-11T01:30:34.868Z,2.80
2022-12-11T01:33:02.592Z,2.80
2022-12-11T01:35:30.158Z,2.80
2022-12-11T01:37:57.695Z,2.80
2022-12-11T01:40:25.291Z,2.80
2022-12-11T01:42:52.712Z,2.80
2022-12-11T01:45:27.037Z,2.90
2022-12-11T01:48:08.681Z,2.90
2022-12-11T01:50:47.760Z,2.90
2022-12-11T01:53:23.140Z,2.90
2022-12-11T01:55:53.853Z,2.90
2022-12-11T01:58:26.785Z,2.90
2022-12-11T02:00:54.961Z,3.00
2022-12-11T02:03:22.856Z,2.90
2022-12-11T02:05:50.626Z,3.00
2022-12-11T02:08:18.732Z,3.00
2022-12-11T02:11:12.816Z,3.00
2022-12-11T02:13:54.016Z,3.00
2022-12-11T02:16:43.037Z,3.00
2022-12-11T02:19:57.936Z,3.00
2022-12-11T02:23:08.650Z,3.00
2022-12-11T02:25:39.273Z,3.00
2022-12-11T02:28:18.771Z,3.00
2022-12-11T02:31:01.049Z,3.00
2022-12-11T02:33:40.326Z,3.00
2022-12-11T02:36:11.356Z,3.00
2022-12-11T02:38:43.388Z,3.10
2022-12-11T02:41:12.520Z,3.00
2022-12-11T02:43:41.716Z,3.10
2022-12-11T02:46:09.664Z,3.10
2022-12-11T02:48:40.720Z,3.10
2022-12-11T02:51:13.208Z,3.10
2022-12-11T02:53:43.842Z,3.10
2022-12-11T02:56:16.763Z,3.10
2022-12-11T02:58:55.331Z,3.10
2022-12-11T03:01:26.897Z,3.10
2022-12-11T03:03:56.040Z,3.10
2022-12-11T03:06:29.351Z,3.20
2022-12-11T03:08:56.946Z,3.20
2022-12-11T03:11:24.455Z,3.20
2022-12-11T03:13:52.865Z,3.20
2022-12-11T03:16:41.991Z,3.20
2022-12-11T03:19:50.531Z,3.20
2022-12-11T03:22:34.315Z,3.20
2022-12-11T03:25:07.299Z,3.20
2022-12-11T03:27:58.745Z,3.20
2022-12-11T03:30:29.310Z,3.20
2022-12-11T03:33:22.198Z,3.20
2022-12-11T03:35:53.791Z,3.20
2022-12-11T03:38:58.823Z,3.20
2022-12-11T03:41:29.206Z,3.20
2022-12-11T03:43:58.917Z,3.20
2022-12-11T03:46:32.187Z,3.20
2022-12-11T03:49:04.357Z,3.20
2022-12-11T03:51:34.633Z,3.30
2022-12-11T03:54:02.770Z,3.30
2022-12-11T03:56:33.308Z,3.30
2022-12-11T03:59:00.865Z,3.30
2022-12-11T04:01:28.406Z,3.30
2022-12-11T04:03:55.969Z,3.30
2022-12-11T04:06:23.518Z,3.30
2022-12-11T04:08:51.119Z,3.30
2022-12-11T04:11:36.765Z,3.30
2022-12-11T04:14:29.245Z,3.30
2022-12-11T04:16:58.055Z,3.30
2022-12-11T04:19:44.350Z,3.30
2022-12-11T04:22:36.010Z,3.30
2022-12-11T04:25:05.309Z,3.30
2022-12-11T04:27:51.152Z,3.30
2022-12-11T04:30:22.561Z,3.30
2022-12-11T04:32:51.293Z,3.40
2022-12-11T04:35:19.584Z,3.40
2022-12-11T04:37:47.337Z,3.40
2022-12-11T04:40:17.208Z,3.40
2022-12-11T04:42:44.826Z,3.40
2022-12-11T04:45:13.187Z,3.40
2022-12-11T04:47:41.982Z,3.40
2022-12-11T04:50:12.364Z,3.40
2022-12-11T04:52:40.060Z,3.40
2022-12-11T04:55:09.153Z,3.50
2022-12-11T04:57:37.096Z,3.50
2022-12-11T05:00:09.998Z,3.50
2022-12-11T05:02:41.267Z,3.50
2022-12-11T05:05:11.749Z,3.50
2022-12-11T05:07:39.587Z,3.50
2022-12-11T05:10:07.731Z,3.50
2022-12-11T05:12:35.344Z,3.50
2022-12-11T05:15:02.886Z,3.50
2022-12-11T05:17:30.483Z,3.50
2022-12-11T05:19:58.130Z,3.50
2022-12-11T05:22:25.589Z,3.50
2022-12-11T05:24:53.101Z,3.50
2022-12-11T05:27:21.208Z,3.50
2022-12-11T05:29:48.940Z,3.50
2022-12-11T05:32:16.673Z,3.50
2022-12-11T05:34:44.204Z,3.50
2022-12-11T05:37:11.672Z,3.50
2022-12-11T05:39:39.389Z,3.50
2022-12-11T05:42:06.905Z,3.60
2022-12-11T05:44:34.693Z,3.60
2022-12-11T05:47:02.242Z,3.60
2022-12-11T05:49:31.232Z,3.60
2022-12-11T05:51:58.861Z,3.60
2022-12-11T05:54:26.319Z,3.60
2022-12-11T05:56:53.824Z,3.60
2022-12-11T05:59:21.456Z,3.60
2022-12-11T06:01:49.141Z,3.60
2022-12-11T06:04:16.787Z,3.60
2022-12-11T06:06:47.417Z,3.60
2022-12-11T06:09:16.754Z,3.60
2022-12-11T06:11:44.219Z,3.60
2022-12-11T06:14:12.441Z,3.70
2022-12-11T06:16:40.068Z,3.70
2022-12-11T06:19:07.874Z,3.70
2022-12-11T06:21:35.642Z,3.70
2022-12-11T06:24:04.530Z,3.70
2022-12-11T06:26:32.659Z,3.70
2022-12-11T06:29:00.372Z,3.70
2022-12-11T06:31:28.118Z,3.70
2022-12-11T06:33:55.736Z,3.70
2022-12-11T06:36:24.908Z,3.70
2022-12-11T06:38:53.417Z,3.70
2022-12-11T06:41:20.942Z,3.70
2022-12-11T06:43:48.624Z,3.70
2022-12-11T06:46:19.046Z,3.70
2022-12-11T06:48:47.983Z,3.70
2022-12-11T06:51:18.704Z,3.70
2022-12-11T06:53:51.166Z,3.70
2022-12-11T06:56:18.775Z,3.70
2022-12-11T06:58:46.347Z,3.70
2022-12-11T07:01:25.666Z,3.70
2022-12-11T07:03:54.985Z,3.80
2022-12-11T07:06:23.146Z,3.80
2022-12-11T07:08:51.023Z,3.70
2022-12-11T07:11:20.226Z,3.70
2022-12-11T07:13:48.116Z,3.70
2022-12-11T07:16:18.161Z,3.80
2022-12-11T07:18:50.665Z,3.80
2022-12-11T07:21:19.553Z,3.70
2022-12-11T07:23:48.226Z,3.70
2022-12-11T07:26:18.683Z,3.80
2022-12-11T07:28:46.836Z,3.70
2022-12-11T07:31:17.364Z,3.80
2022-12-11T07:33:45.356Z,3.80
2022-12-11T07:36:14.424Z,3.80
2022-12-11T07:38:42.526Z,3.70
2022-12-11T07:41:13.194Z,3.70
2022-12-11T07:43:41.112Z,3.70
2022-12-11T07:46:13.300Z,3.70
2022-12-11T07:48:43.019Z,3.70
2022-12-11T07:51:16.806Z,3.70
2022-12-11T07:53:49.513Z,3.70
2022-12-11T07:56:18.066Z,3.70
2022-12-11T07:58:46.701Z,3.70
2022-12-11T08:01:20.449Z,3.70
2022-12-11T08:03:48.653Z,3.70
2022-12-11T08:06:16.140Z,3.70
2022-12-11T08:08:43.959Z,3.70
2022-12-11T08:11:14.360Z,3.70
2022-12-11T08:13:42.958Z,3.70
2022-12-11T08:16:13.664Z,3.80
2022-12-11T08:18:42.485Z,3.70
2022-12-11T08:21:24.911Z,3.80
2022-12-11T08:23:53.569Z,3.70
2022-12-11T08:26:26.980Z,3.80
2022-12-11T08:28:55.046Z,3.80
2022-12-11T08:31:23.244Z,3.80
2022-12-11T08:33:51.639Z,3.80
2022-12-11T08:36:21.859Z,3.80
2022-12-11T08:38:50.962Z,3.80
2022-12-11T08:41:25.224Z,3.80
2022-12-11T08:43:55.282Z,3.90
2022-12-11T08:46:28.002Z,3.90
2022-12-11T08:48:55.696Z,3.90
2022-12-11T08:51:26.296Z,3.90
2022-12-11T08:53:57.452Z,3.90
2022-12-11T08:56:25.616Z,3.90
2022-12-11T08:58:53.795Z,3.90
2022-12-11T09:01:26.855Z,3.90
2022-12-11T09:03:56.822Z,4.00
2022-12-11T09:06:27.557Z,4.00
2022-12-11T09:08:56.313Z,4.00
2022-12-11T09:11:27.476Z,4.00
2022-12-11T09:13:55.452Z,4.00
2022-12-11T09:16:25.949Z,4.00
2022-12-11T09:18:56.157Z,4.00
2022-12-11T09:21:26.554Z,4.10
2022-12-11T09:23:56.740Z,4.10
2022-12-11T09:26:25.521Z,4.10
2022-12-11T09:28:53.687Z,4.10
2022-12-11T09:31:27.795Z,4.10
2022-12-11T09:33:57.566Z,4.10
2022-12-11T09:36:25.309Z,4.20
2022-12-11T09:38:53.178Z,4.10
2022-12-11T09:41:26.448Z,4.20
2022-12-11T09:43:59.850Z,4.10
2022-12-11T09:46:32.226Z,4.10
2022-12-11T09:49:03.807Z,4.20
2022-12-11T09:51:39.876Z,4.20
2022-12-11T09:54:07.680Z,4.20
2022-12-11T09:56:53.487Z,4.20
2022-12-11T10:00:19.805Z,4.20
2022-12-11T10:02:56.623Z,4.20
2022-12-11T10:05:45.694Z,4.20
2022-12-11T10:08:31.044Z,4.20
2022-12-11T10:11:24.974Z,4.20
2022-12-11T10:14:26.303Z,4.30
2022-12-11T10:17:02.824Z,4.30
2022-12-11T10:19:32.763Z,4.30
2022-12-11T10:22:01.716Z,4.30
2022-12-11T10:27:32.102Z,4.30
2022-12-11T10:30:24.931Z,4.30
2022-12-11T10:33:12.107Z,4.30
2022-12-11T10:35:49.847Z,4.30
2022-12-11T10:38:38.777Z,4.30
2022-12-11T10:41:15.262Z,4.30
2022-12-11T10:43:48.535Z,4.30
2022-12-11T10:46:18.275Z,4.40
2022-12-11T10:48:53.537Z,4.40
2022-12-11T10:51:33.704Z,4.40
2022-12-11T10:54:28.092Z,4.40
2022-12-11T10:56:56.621Z,4.40
2022-12-11T10:59:47.724Z,4.50
2022-12-11T11:02:41.705Z,4.50
2022-12-11T11:05:30.010Z,4.50
2022-12-11T11:08:24.069Z,4.50
2022-12-11T11:10:52.063Z,4.60
2022-12-11T11:13:23.835Z,4.60
2022-12-11T11:16:03.612Z,4.60
2022-12-11T11:18:32.281Z,4.60
2022-12-11T11:21:01.373Z,4.60
2022-12-11T11:23:29.361Z,4.60
2022-12-11T11:25:59.977Z,4.70
2022-12-11T11:28:35.509Z,4.70
2022-12-11T11:31:27.478Z,4.70
2022-12-11T11:33:59.297Z,4.70
2022-12-11T11:36:29.544Z,4.70
2022-12-11T11:39:18.276Z,4.70
2022-12-11T11:42:04.103Z,4.70
2022-12-11T11:44:41.325Z,4.70
2022-12-11T11:47:19.968Z,4.80
2022-12-11T11:50:04.536Z,4.80
2022-12-11T11:52:56.380Z,4.80
2022-12-11T11:55:50.704Z,4.80
2022-12-11T11:58:24.616Z,4.80
2022-12-11T12:00:54.978Z,4.80
2022-12-11T12:03:24.840Z,4.90
2022-12-11T12:06:33.678Z,4.90
2022-12-11T12:09:31.685Z,4.90
2022-12-11T12:12:12.761Z,4.90
2022-12-11T12:14:53.627Z,4.90
2022-12-11T12:17:31.785Z,4.90
2022-12-11T12:20:37.781Z,4.90
2022-12-11T12:23:26.390Z,5.00
2022-12-11T12:26:09.167Z,5.00
2022-12-11T12:29:08.910Z,4.90
2022-12-11T12:31:36.475Z,5.00
2022-12-11T12:34:13.151Z,5.00
2022-12-11T12:37:01.721Z,5.00
2022-12-11T12:39:52.188Z,5.00
2022-12-11T12:42:43.191Z,5.00
2022-12-11T12:45:16.252Z,5.00
2022-12-11T12:47:51.981Z,5.00
2022-12-11T12:50:27.539Z,5.00
2022-12-11T12:52:56.641Z,5.00
2022-12-11T12:55:29.125Z,5.00
2022-12-11T12:58:02.555Z,5.00
2022-12-11T13:00:44.120Z,5.00
2022-12-11T13:03:20.452Z,5.00
2022-12-11T13:06:04.008Z,5.00
2022-12-11T13:08:42.284Z,5.00
2022-12-11T13:11:12.341Z,5.00
2022-12-11T13:13:43.308Z,5.00
2022-12-11T13:16:16.687Z,5.10
2022-12-11T13:18:47.808Z,5.10
2022-12-11T13:21:29.133Z,5.00
2022-12-11T13:24:15.749Z,5.10
2022-12-11T13:26:43.845Z,5.10
2022-12-11T13:29:33.092Z,5.00
2022-12-11T13:32:08.222Z,5.10
2022-12-11T13:34:42.457Z,5.10
2022-12-11T13:37:37.252Z,5.10
2022-12-11T13:40:28.604Z,5.10
2022-12-11T13:43:06.522Z,5.00
2022-12-11T13:45:49.985Z,5.10
2022-12-11T13:48:27.195Z,5.10
2022-12-11T13:50:56.194Z,5.00
2022-12-11T13:53:24.256Z,5.10
2022-12-11T13:55:58.980Z,5.10
2022-12-11T13:58:27.542Z,5.00
2022-12-11T14:01:11.407Z,5.10
2022-12-11T14:03:51.181Z,5.10
2022-12-11T14:06:19.313Z,5.10
2022-12-11T14:08:50.445Z,5.10
2022-12-11T14:11:23.911Z,5.00
2022-12-11T14:13:51.648Z,5.00
2022-12-11T14:16:24.167Z,5.00
2022-12-11T14:18:53.160Z,5.00
2022-12-11T14:21:23.460Z,5.00
2022-12-11T14:23:58.729Z,5.00
2022-12-11T14:26:34.457Z,5.00
2022-12-11T14:29:03.063Z,5.00
2022-12-11T14:31:32.671Z,5.00
2022-12-11T14:34:12.100Z,5.00
2022-12-11T14:36:42.615Z,4.90
2022-12-11T14:39:22.104Z,5.00
2022-12-11T14:42:01.417Z,4.90
2022-12-11T14:44:33.384Z,4.90
2022-12-11T14:47:10.655Z,4.90
2022-12-11T14:49:54.659Z,4.90
2022-12-11T14:52:27.232Z,4.90
2022-12-11T14:55:02.287Z,4.80
2022-12-11T14:57:31.567Z,4.80
2022-12-11T14:59:59.497Z,4.80
2022-12-11T15:02:33.416Z,4.80
2022-12-11T15:05:15.235Z,4.80
2022-12-11T15:07:44.210Z,4.80
2022-12-11T15:10:41.378Z,4.80
2022-12-11T15:13:10.008Z,4.70
2022-12-11T15:15:47.675Z,4.80
2022-12-11T15:18:31.522Z,4.70
2022-12-11T15:21:02.787Z,4.70
2022-12-11T15:23:30.915Z,4.70
2022-12-11T15:26:02.866Z,4.70
2022-12-11T15:28:36.549Z,4.70
2022-12-11T15:31:25.826Z,4.70
2022-12-11T15:33:53.712Z,4.60
2022-12-11T15:36:35.932Z,4.60
2022-12-11T15:39:09.679Z,4.60
2022-12-11T15:41:37.270Z,4.60
2022-12-11T15:44:05.174Z,4.60
2022-12-11T15:46:36.801Z,4.60
2022-12-11T15:49:12.766Z,4.60
2022-12-11T15:51:43.079Z,4.60
2022-12-11T15:54:11.056Z,4.60
2022-12-11T15:56:38.621Z,4.60
2022-12-11T15:59:07.211Z,4.60
2022-12-11T16:01:35.243Z,4.60
2022-12-11T16:04:05.116Z,4.60
2022-12-11T16:06:33.675Z,4.60
2022-12-11T16:09:03.596Z,4.50
2022-12-11T16:11:31.496Z,4.50
2022-12-11T16:13:59.163Z,4.50
2022-12-11T16:16:26.582Z,4.50
2022-12-11T16:18:54.100Z,4.50
2022-12-11T16:21:21.870Z,4.50
2022-12-11T16:23:49.814Z,4.50
2022-12-11T16:26:17.313Z,4.40
2022-12-11T16:28:45.113Z,4.40
2022-12-11T16:31:17.270Z,4.40
2022-12-11T16:33:44.911Z,4.40
2022-12-11T16:36:14.636Z,4.40
2022-12-11T16:38:51.474Z,4.40
2022-12-11T16:41:21.108Z,4.40
2022-12-11T16:43:48.747Z,4.40
2022-12-11T16:46:20.945Z,4.30
2022-12-11T16:48:48.768Z,4.30
2022-12-11T16:51:17.441Z,4.30
2022-12-11T16:53:45.022Z,4.30
2022-12-11T16:56:12.846Z,4.30
2022-12-11T16:58:40.902Z,4.30
2022-12-11T17:01:14.091Z,4.30
2022-12-11T17:03:42.737Z,4.20
2022-12-11T17:06:12.359Z,4.20
2022-12-11T17:08:40.336Z,4.20
2022-12-11T17:11:10.173Z,4.20
2022-12-11T17:13:38.238Z,4.20
2022-12-11T17:16:07.936Z,4.20
2022-12-11T17:18:35.923Z,4.20
2022-12-11T17:21:15.141Z,4.20
2022-12-11T17:23:43.072Z,4.20
2022-12-11T17:26:11.407Z,4.20
2022-12-11T17:28:39.855Z,4.20
2022-12-11T17:31:09.474Z,4.20
2022-12-11T17:33:38.734Z,4.20
2022-12-11T17:36:08.326Z,4.20
2022-12-11T17:38:36.199Z,4.20
2022-12-11T17:41:08.378Z,4.20
2022-12-11T17:43:36.274Z,4.20
2022-12-11T17:46:05.031Z,4.20
2022-12-11T17:48:32.854Z,4.20
2022-12-11T17:51:05.476Z,4.20
2022-12-11T17:53:33.636Z,4.20
2022-12-11T17:56:03.829Z,4.20
2022-12-11T17:58:32.076Z,4.20
2022-12-11T18:01:01.894Z,4.20
2022-12-11T18:03:30.470Z,4.20
2022-12-11T18:06:08.696Z,4.20
2022-12-11T18:08:36.840Z,4.20
2022-12-11T18:11:18.410Z,4.20
2022-12-11T18:13:49.252Z,4.20
2022-12-11T18:16:24.136Z,4.20
2022-12-11T18:18:53.781Z,4.20
2022-12-11T18:21:30.186Z,4.20
2022-12-11T18:24:00.577Z,4.20
2022-12-11T18:26:29.213Z,4.20
2022-12-11T18:28:56.928Z,4.20
2022-12-11T18:31:25.117Z,4.20
2022-12-11T18:33:52.920Z,4.20
2022-12-11T18:36:21.433Z,4.20
2022-12-11T18:38:49.278Z,4.20
2022-12-11T18:41:18.581Z,4.20
2022-12-11T18:43:46.352Z,4.20
2022-12-11T18:46:18.203Z,4.20
2022-12-11T18:48:46.632Z,4.20
2022-12-11T18:51:25.007Z,4.10
2022-12-11T18:53:52.987Z,4.10
2022-12-11T18:56:21.297Z,4.20
2022-12-11T18:58:51.165Z,4.10
2022-12-11T19:01:20.827Z,4.10
2022-12-11T19:03:48.874Z,4.10
2022-12-11T19:06:19.615Z,4.10
2022-12-11T19:08:47.701Z,4.10
2022-12-11T19:11:17.684Z,4.10
2022-12-11T19:13:45.741Z,4.10
2022-12-11T19:16:25.830Z,4.00
2022-12-11T19:18:54.410Z,4.10
2022-12-11T19:21:22.361Z,4.00
2022-12-11T19:23:49.919Z,4.00
2022-12-11T19:26:20.749Z,4.00
2022-12-11T19:28:50.595Z,4.00
2022-12-11T19:31:21.803Z,4.00
2022-12-11T19:33:49.829Z,4.00
2022-12-11T19:36:19.394Z,4.00
2022-12-11T19:38:47.137Z,4.00
2022-12-11T19:41:17.943Z,4.00
2022-12-11T19:43:45.741Z,4.00
2022-12-11T19:46:14.237Z,4.00
2022-12-11T19:48:43.803Z,4.00
2022-12-11T19:51:20.167Z,4.00
2022-12-11T19:53:49.214Z,4.00
2022-12-11T19:56:18.107Z,4.00
2022-12-11T19:58:46.393Z,4.00
2022-12-11T20:01:26.193Z,4.00
2022-12-11T20:03:55.581Z,4.00
2022-12-11T20:06:24.474Z,4.00
2022-12-11T20:08:52.077Z,4.00
2022-12-11T20:11:19.841Z,4.00
2022-12-11T20:13:48.650Z,4.00
2022-12-11T20:16:18.035Z,3.90
2022-12-11T20:18:49.104Z,4.00
2022-12-11T20:21:18.757Z,4.00
2022-12-11T20:23:47.047Z,4.00
2022-12-11T20:26:23.045Z,3.90
2022-12-11T20:28:52.739Z,3.90
2022-12-11T20:31:25.149Z,3.90
2022-12-11T20:33:54.173Z,3.90
2022-12-11T20:36:24.366Z,3.90
2022-12-11T20:38:52.589Z,3.90
2022-12-11T20:41:22.540Z,3.90
2022-12-11T20:43:50.464Z,3.90
2022-12-11T20:46:18.745Z,3.90
2022-12-11T20:48:47.506Z,3.90
2022-12-11T20:51:23.839Z,3.90
2022-12-11T20:53:59.072Z,3.90
2022-12-11T20:56:29.617Z,3.90
2022-12-11T20:58:58.523Z,3.90
2022-12-11T21:01:27.850Z,3.90
2022-12-11T21:03:55.426Z,3.90
2022-12-11T21:06:26.070Z,3.90
2022-12-11T21:08:54.420Z,3.90
2022-12-11T21:11:22.695Z,3.90
2022-12-11T21:13:52.057Z,3.90
2022-12-11T21:16:20.394Z,3.90
2022-12-11T21:18:48.753Z,3.80
2022-12-11T21:21:17.172Z,3.90
2022-12-11T21:23:45.397Z,3.90
2022-12-11T21:26:13.497Z,3.80
2022-12-11T21:28:41.687Z,3.80
2022-12-11T21:31:13.328Z,3.80
2022-12-11T21:33:41.046Z,3.80
2022-12-11T21:36:11.303Z,3.80
2022-12-11T21:38:40.089Z,3.80
2022-12-11T21:41:16.223Z,3.80
2022-12-11T21:44:14.511Z,3.80
2022-12-11T21:46:33.792Z,3.80
2022-12-11T21:49:01.536Z,3.80
2022-12-11T21:51:36.496Z,3.80
2022-12-11T21:54:06.855Z,3.80
2022-12-11T21:56:34.626Z,3.70
2022-12-11T21:59:02.785Z,3.70
2022-12-11T22:01:34.503Z,3.70
2022-12-11T22:04:02.580Z,3.70
2022-12-11T22:06:30.127Z,3.70
2022-12-11T22:08:57.931Z,3.70
2022-12-11T22:11:28.620Z,3.70
2022-12-11T22:13:56.420Z,3.70
2022-12-11T22:16:24.238Z,3.70
2022-12-11T22:18:52.155Z,3.70
2022-12-11T22:21:20.599Z,3.70
2022-12-11T22:23:48.625Z,3.70
2022-12-11T22:26:20.573Z,3.70
2022-12-11T22:28:49.284Z,3.70
2022-12-11T22:31:20.779Z,3.70
2022-12-11T22:33:50.358Z,3.70
2022-12-11T22:36:19.202Z,3.70
2022-12-11T22:38:47.586Z,3.70
2022-12-11T22:41:30.815Z,3.70
2022-12-11T22:43:59.598Z,3.70
2022-12-11T22:46:29.520Z,3.70
2022-12-11T22:48:58.080Z,3.70
2022-12-11T22:51:25.719Z,3.70
2022-12-11T22:53:53.239Z,3.70
2022-12-11T22:56:21.178Z,3.70
2022-12-11T22:58:48.680Z,3.70
2022-12-11T23:01:23.487Z,3.70
2022-12-11T23:03:51.386Z,3.70
2022-12-11T23:06:21.486Z,3.80
2022-12-11T23:08:49.137Z,3.80
2022-12-11T23:11:19.748Z,3.80
2022-12-11T23:13:47.699Z,3.80
2022-12-11T23:16:15.345Z,3.70
2022-12-11T23:18:43.187Z,3.80
2022-12-11T23:21:11.975Z,3.80
2022-12-11T23:23:39.594Z,3.70
2022-12-11T23:26:09.507Z,3.80
2022-12-11T23:28:37.454Z,3.80
2022-12-11T23:31:05.929Z,3.70
2022-12-11T23:33:33.711Z,3.70
2022-12-11T23:36:01.245Z,3.70
2022-12-11T23:38:28.899Z,3.70
2022-12-11T23:40:56.693Z,3.70
2022-12-11T23:43:24.192Z,3.70
2022-12-11T23:45:51.766Z,3.70
2022-12-11T23:48:19.443Z,3.70
2022-12-11T23:50:48.364Z,3.70
2022-12-11T23:53:15.999Z,3.70
2022-12-11T23:55:45.419Z,3.70
2022-12-11T23:58:13.690Z,3.70
